South Byron, Wisconsin
Current Conditions -  °F | °C
As of 7:53 PM on Wednesday 26 Nov 2014 (Local Time) from KFLD Reporting Station
Light Snow Light Snow  
Wind Chill: 12°   Ceiling: 8000
Heat Index: 20°   Visibility: 7mi
Dew Point: 16°   Wind: 6mph
Humidity: 85%   Direction: 290°WNW
Pressure: 30.18"   Gusts: NA
Location:  43.6092°N, 88.5191°W
Report Text: KFLD 270153Z AUTO 29005KT 7SM -SN BKN080 OVC100 M07/M09 A3018 RMK AO2 SNB53 SLP235 P0000 T10671089
Loading
Personal Weather Stations






























Interactive Weather Map New forecast layout! Learn more

10-Day Weather Forecast

Advertisements
Track Severe Weather on mobile